Lake Tacoma, Illinois
Current Conditions -  °F | °C
As of 9:52 AM on Saturday 25 Oct 2014 (Local Time) from KMDH Reporting Station
Clear Clear  
Wind Chill: 68°   Ceiling: Unl
Heat Index: 68°   Visibility: 10mi
Dew Point: 60°   Wind: 5mph
Humidity: 76%   Direction: 320°NW
Pressure: 30.05"   Gusts: NA
Location:  37.7248°N, 89.197°W
Report Text: KMDH 251452Z 32004KT 10SM CLR 20/16 A3005 RMK AO2 SLP176 T02000156 53009
Loading
Personal Weather Stations






























Interactive Weather Map
Tropical Storm Tracking
New forecast layout! Learn more

10-Day Weather Forecast

Advertisements
Track Severe Weather on mobile